createdAt,value
2019-03-15T00:01:14.127Z,99017.61
2019-03-15T00:03:46.532Z,99019.06
2019-03-15T00:06:18.962Z,99015.41
2019-03-15T00:08:51.543Z,99025.14
2019-03-15T00:11:23.909Z,99020.48
2019-03-15T00:13:57.805Z,99026.24
2019-03-15T00:16:32.913Z,99032.62
2019-03-15T00:19:05.918Z,99033.17
2019-03-15T00:21:40.663Z,99033.28
2019-03-15T00:24:14.209Z,99046.67
2019-03-15T00:26:46.538Z,99041.36
2019-03-15T00:29:18.853Z,99031.97
2019-03-15T00:31:52.593Z,99039.97
2019-03-15T00:34:25.584Z,99031.70
2019-03-15T00:36:59.747Z,99034.30
2019-03-15T00:39:34.001Z,99029.25
2019-03-15T00:42:06.471Z,99033.65
2019-03-15T00:44:38.714Z,99033.20
2019-03-15T00:47:11.587Z,99038.81
2019-03-15T00:49:43.991Z,99042.89
2019-03-15T00:52:17.801Z,99048.56
2019-03-15T00:54:50.394Z,99054.00
2019-03-15T00:57:23.354Z,99047.41
2019-03-15T00:59:55.629Z,99044.35
2019-03-15T01:02:28.254Z,99033.89
2019-03-15T01:05:00.577Z,99028.19
2019-03-15T01:07:33.563Z,99033.41
2019-03-15T01:10:07.593Z,99034.53
2019-03-15T01:12:41.690Z,99040.14
2019-03-15T01:15:15.619Z,99034.13
2019-03-15T01:17:48.855Z,99035.27
2019-03-15T01:20:21.117Z,99031.68
2019-03-15T01:22:53.401Z,99030.08
2019-03-15T01:25:26.061Z,99023.64
2019-03-15T01:27:58.367Z,99017.53
2019-03-15T01:30:30.667Z,99019.95
2019-03-15T01:33:03.347Z,99021.80
2019-03-15T01:35:35.614Z,99017.89
2019-03-15T01:38:07.890Z,99015.88
2019-03-15T01:40:41.686Z,99018.89
2019-03-15T01:43:13.990Z,99022.11
2019-03-15T01:45:47.355Z,99015.83
2019-03-15T01:48:22.566Z,99013.71
2019-03-15T01:50:54.868Z,99008.56
2019-03-15T01:53:27.261Z,99009.75
2019-03-15T01:56:02.699Z,99005.34
2019-03-15T01:58:35.002Z,99001.89
2019-03-15T02:01:07.916Z,99000.09
2019-03-15T02:03:41.678Z,99005.15
2019-03-15T02:06:15.327Z,99002.00
2019-03-15T02:08:47.638Z,98996.10
2019-03-15T02:11:20.209Z,99004.23
2019-03-15T02:13:52.710Z,99003.19
2019-03-15T02:16:25.671Z,99002.02
2019-03-15T02:18:58.724Z,98999.23
2019-03-15T02:21:31.260Z,99004.75
2019-03-15T02:24:04.550Z,99004.90
2019-03-15T02:26:38.529Z,99000.92
2019-03-15T02:29:11.039Z,99005.30
2019-03-15T02:31:43.534Z,99002.27
2019-03-15T02:34:16.635Z,99005.36
2019-03-15T02:36:49.345Z,99004.23
2019-03-15T02:39:21.936Z,99000.45
2019-03-15T02:41:54.624Z,99005.20
2019-03-15T02:44:27.965Z,99003.63
2019-03-15T02:47:00.499Z,98996.38
2019-03-15T02:49:34.833Z,99000.27
2019-03-15T02:52:07.700Z,98987.66
2019-03-15T02:54:40.129Z,98975.42
2019-03-15T02:57:13.610Z,98984.30
2019-03-15T02:59:47.189Z,98987.06
2019-03-15T03:02:21.086Z,98984.16
2019-03-15T03:04:54.499Z,98979.03
2019-03-15T03:07:27.214Z,98990.86
2019-03-15T03:10:01.018Z,98991.55
2019-03-15T03:12:34.779Z,98990.29
2019-03-15T03:15:06.724Z,98994.87
2019-03-15T03:17:40.241Z,98992.14
2019-03-15T03:20:13.337Z,98989.70
2019-03-15T03:22:45.741Z,98992.70
2019-03-15T03:25:18.447Z,98993.98
2019-03-15T03:27:51.232Z,98986.72
2019-03-15T03:30:23.605Z,98978.33
2019-03-15T03:32:55.883Z,98972.87
2019-03-15T03:35:29.710Z,98975.55
2019-03-15T03:38:03.021Z,98970.70
2019-03-15T03:40:35.345Z,98979.76
2019-03-15T03:43:09.135Z,98970.69
2019-03-15T03:45:41.386Z,98975.61
2019-03-15T03:48:15.807Z,98975.86
2019-03-15T03:50:48.686Z,98974.84
2019-03-15T03:53:21.050Z,98971.99
2019-03-15T03:55:56.115Z,98971.06
2019-03-15T03:58:28.916Z,98962.70
2019-03-15T04:01:01.238Z,98958.11
2019-03-15T04:03:33.588Z,98950.82
2019-03-15T04:06:08.617Z,98940.34
2019-03-15T04:08:40.930Z,98938.58
2019-03-15T04:11:13.243Z,98932.38
2019-03-15T04:13:45.955Z,98940.47
2019-03-15T04:16:18.306Z,98937.91
2019-03-15T04:18:50.750Z,98942.45
2019-03-15T04:21:23.843Z,98939.50
2019-03-15T04:23:56.130Z,98932.86
2019-03-15T04:26:30.024Z,98929.15
2019-03-15T04:29:03.458Z,98936.59
2019-03-15T04:31:35.817Z,98936.38
2019-03-15T04:34:08.457Z,98934.34
2019-03-15T04:36:41.458Z,98945.62
2019-03-15T04:39:14.257Z,98945.41
2019-03-15T04:41:46.765Z,98938.30
2019-03-15T04:44:19.577Z,98940.59
2019-03-15T04:46:52.105Z,98941.05
2019-03-15T04:49:24.638Z,98937.36
2019-03-15T04:51:58.585Z,98933.61
2019-03-15T04:54:31.070Z,98929.58
2019-03-15T04:57:03.878Z,98923.76
2019-03-15T04:59:36.875Z,98923.38
2019-03-15T05:02:18.596Z,98928.83
2019-03-15T05:04:51.277Z,98930.83
2019-03-15T05:07:24.134Z,98933.47
2019-03-15T05:09:56.419Z,98928.63
2019-03-15T05:12:29.632Z,98931.63
2019-03-15T05:15:04.102Z,98932.83
2019-03-15T05:17:40.306Z,98932.86
2019-03-15T05:20:13.259Z,98935.45
2019-03-15T05:22:46.065Z,98922.99
2019-03-15T05:25:19.920Z,98926.86
2019-03-15T05:27:52.914Z,98918.45
2019-03-15T05:30:26.844Z,98914.73
2019-03-15T05:32:59.626Z,98903.13
2019-03-15T05:35:31.986Z,98899.52
2019-03-15T05:38:05.225Z,98898.44
2019-03-15T05:40:37.969Z,98884.57
2019-03-15T05:43:10.579Z,98877.15
2019-03-15T05:45:44.751Z,98879.13
2019-03-15T05:48:17.369Z,98880.23
2019-03-15T05:50:49.651Z,98876.78
2019-03-15T05:53:23.416Z,98872.13
2019-03-15T05:55:55.786Z,98873.59
2019-03-15T05:58:28.724Z,98868.77
2019-03-15T06:01:05.848Z,98863.38
2019-03-15T06:03:48.627Z,98867.05
2019-03-15T06:06:22.523Z,98862.42
2019-03-15T06:08:55.517Z,98860.61
2019-03-15T06:11:28.632Z,98859.80
2019-03-15T06:14:01.070Z,98853.80
2019-03-15T06:16:34.877Z,98858.92
2019-03-15T06:19:07.283Z,98855.86
2019-03-15T06:21:40.137Z,98854.02
2019-03-15T06:24:14.765Z,98849.75
2019-03-15T06:26:47.052Z,98842.80
2019-03-15T06:29:19.905Z,98841.75
2019-03-15T06:31:52.207Z,98838.84
2019-03-15T06:34:27.326Z,98838.16
2019-03-15T06:36:59.972Z,98836.05
2019-03-15T06:39:32.399Z,98832.00
2019-03-15T06:42:05.714Z,98828.19
2019-03-15T06:44:40.434Z,98837.30
2019-03-15T06:47:12.774Z,98837.00
2019-03-15T06:49:45.176Z,98832.02
2019-03-15T06:52:17.447Z,98831.17
2019-03-15T06:54:49.799Z,98822.08
2019-03-15T06:57:22.508Z,98821.48
2019-03-15T06:59:54.931Z,98819.09
2019-03-15T07:02:27.975Z,98821.02
2019-03-15T07:05:00.467Z,98819.03
2019-03-15T07:07:33.542Z,98819.58
2019-03-15T07:10:07.555Z,98812.40
2019-03-15T07:12:40.776Z,98802.66
2019-03-15T07:15:14.907Z,98798.50
2019-03-15T07:17:47.948Z,98791.10
2019-03-15T07:20:20.810Z,98790.63
2019-03-15T07:22:53.370Z,98789.41
2019-03-15T07:25:25.884Z,98794.45
2019-03-15T07:27:59.335Z,98793.72
2019-03-15T07:30:31.703Z,98788.39
2019-03-15T07:33:05.955Z,98776.84
2019-03-15T07:35:38.561Z,98767.13
2019-03-15T07:38:11.777Z,98767.97
2019-03-15T07:40:44.147Z,98761.78
2019-03-15T07:43:19.926Z,98758.30
2019-03-15T07:45:52.587Z,98740.77
2019-03-15T07:48:26.993Z,98732.44
2019-03-15T07:50:59.843Z,98724.45
2019-03-15T07:53:35.200Z,98722.41
2019-03-15T07:56:08.022Z,98728.47
2019-03-15T07:58:41.468Z,98734.42
2019-03-15T08:01:14.792Z,98732.83
2019-03-15T08:03:47.192Z,98723.92
2019-03-15T08:06:19.995Z,98718.08
2019-03-15T08:08:53.045Z,98720.09
2019-03-15T08:11:25.403Z,98719.03
2019-03-15T08:13:58.212Z,98728.31
2019-03-15T08:16:30.545Z,98728.80
2019-03-15T08:19:09.640Z,98724.36
2019-03-15T08:21:43.558Z,98718.21
2019-03-15T08:24:16.706Z,98707.83
2019-03-15T08:26:50.263Z,98705.00
2019-03-15T08:29:25.105Z,98704.70
2019-03-15T08:32:00.379Z,98703.77
2019-03-15T08:34:32.791Z,98712.23
2019-03-15T08:37:05.786Z,98716.00
2019-03-15T08:39:38.884Z,98714.05
2019-03-15T08:42:11.497Z,98716.12
2019-03-15T08:44:46.065Z,98706.81
2019-03-15T08:47:21.582Z,98715.50
2019-03-15T08:49:57.873Z,98718.66
2019-03-15T08:52:30.299Z,98718.24
2019-03-15T08:55:05.480Z,98727.17
2019-03-15T08:57:40.011Z,98725.27
2019-03-15T09:00:19.737Z,98724.38
2019-03-15T09:02:52.603Z,98723.07
2019-03-15T09:05:27.863Z,98715.31
2019-03-15T09:08:01.262Z,98714.47
2019-03-15T09:10:36.617Z,98723.67
2019-03-15T09:13:14.361Z,98722.03
2019-03-15T09:15:47.435Z,98721.58
2019-03-15T09:18:19.851Z,98724.70
2019-03-15T09:20:52.159Z,98724.70
2019-03-15T09:23:25.027Z,98718.33
2019-03-15T09:25:58.150Z,98722.82
2019-03-15T09:28:31.865Z,98718.35
2019-03-15T09:31:07.324Z,98720.30
2019-03-15T09:33:40.083Z,98721.61
2019-03-15T09:36:17.008Z,98721.34
2019-03-15T09:38:50.807Z,98725.08
2019-03-15T09:41:31.849Z,98717.94
2019-03-15T09:44:08.070Z,98712.58
2019-03-15T09:46:40.419Z,98720.77
2019-03-15T09:49:13.551Z,98712.19
2019-03-15T09:51:47.312Z,98707.94
2019-03-15T09:54:20.723Z,98711.20
2019-03-15T09:56:54.113Z,98710.84
2019-03-15T09:59:28.224Z,98709.38
2019-03-15T10:02:01.764Z,98715.02
2019-03-15T10:04:36.231Z,98712.09
2019-03-15T10:07:08.841Z,98718.52
2019-03-15T10:09:46.196Z,98706.03
2019-03-15T10:12:18.796Z,98713.28
2019-03-15T10:14:53.766Z,98717.44
2019-03-15T10:17:26.341Z,98716.91
2019-03-15T10:20:01.117Z,98714.05
2019-03-15T10:22:33.458Z,98721.30
2019-03-15T10:25:07.786Z,98719.30
2019-03-15T10:27:42.788Z,98731.33
2019-03-15T10:30:17.581Z,98730.53
2019-03-15T10:32:51.657Z,98728.30
2019-03-15T10:35:26.681Z,98728.03
2019-03-15T10:38:02.722Z,98727.44
2019-03-15T10:40:35.634Z,98739.23
2019-03-15T10:43:10.944Z,98741.29
2019-03-15T10:45:50.326Z,98740.48
2019-03-15T10:48:33.577Z,98748.43
2019-03-15T10:51:07.980Z,98747.59
2019-03-15T10:53:48.659Z,98752.74
2019-03-15T10:56:24.737Z,98744.20
2019-03-15T10:58:57.718Z,98749.19
2019-03-15T11:01:31.900Z,98752.23
2019-03-15T11:04:04.417Z,98757.42
2019-03-15T11:06:36.846Z,98755.77
2019-03-15T11:09:11.581Z,98765.40
2019-03-15T11:11:46.526Z,98761.04
2019-03-15T11:14:20.159Z,98760.45
2019-03-15T11:16:54.594Z,98771.02
2019-03-15T11:19:30.074Z,98765.92
2019-03-15T11:22:04.074Z,98762.76
2019-03-15T11:24:43.674Z,98791.19
2019-03-15T11:27:16.361Z,98781.87
2019-03-15T11:29:49.204Z,98786.86
2019-03-15T11:32:21.895Z,98795.97
2019-03-15T11:34:55.536Z,98786.52
2019-03-15T11:37:28.359Z,98785.86
2019-03-15T11:40:01.483Z,98797.16
2019-03-15T11:42:34.795Z,98799.62
2019-03-15T11:45:08.796Z,98787.78
2019-03-15T11:48:01.427Z,98785.52
2019-03-15T11:50:35.640Z,98797.95
2019-03-15T11:53:09.196Z,98792.55
2019-03-15T11:55:41.980Z,98796.74
2019-03-15T11:58:15.097Z,98805.86
2019-03-15T12:00:48.276Z,98805.26
2019-03-15T12:03:21.121Z,98791.05
2019-03-15T12:05:53.570Z,98806.55
2019-03-15T12:08:27.079Z,98778.30
2019-03-15T12:10:59.884Z,98775.07
2019-03-15T12:13:33.409Z,98773.23
2019-03-15T12:16:06.794Z,98784.11
2019-03-15T12:18:40.379Z,98776.21
2019-03-15T12:21:20.733Z,98763.26
2019-03-15T12:23:53.176Z,98784.11
2019-03-15T12:26:39.537Z,98781.70
2019-03-15T12:29:12.899Z,98773.00
2019-03-15T12:31:46.084Z,98776.45
2019-03-15T12:34:19.597Z,98774.84
2019-03-15T12:36:51.887Z,98772.17
2019-03-15T12:39:26.449Z,98765.13
2019-03-15T12:41:58.772Z,98774.04
2019-03-15T12:44:31.256Z,98768.83
2019-03-15T12:47:06.325Z,98779.30
2019-03-15T12:49:38.932Z,98782.60
2019-03-15T12:52:20.581Z,98779.20
2019-03-15T12:54:54.890Z,98793.99
2019-03-15T12:57:27.795Z,98788.55
2019-03-15T13:00:03.234Z,98783.95
2019-03-15T13:02:35.831Z,98788.52
2019-03-15T13:05:09.987Z,98786.82
2019-03-15T13:07:42.905Z,98776.13
2019-03-15T13:10:22.311Z,98778.91
2019-03-15T13:12:55.529Z,98762.33
2019-03-15T13:15:31.925Z,98779.69
2019-03-15T13:18:04.757Z,98765.95
2019-03-15T13:20:37.192Z,98778.92
2019-03-15T13:23:10.709Z,98766.35
2019-03-15T13:25:43.171Z,98786.33
2019-03-15T13:28:16.366Z,98786.12
2019-03-15T13:30:51.263Z,98766.93
2019-03-15T13:33:24.676Z,98774.51
2019-03-15T13:36:02.901Z,98779.62
2019-03-15T13:38:36.310Z,98779.88
2019-03-15T13:41:09.819Z,98772.08
2019-03-15T13:43:44.839Z,98766.44
2019-03-15T13:46:17.344Z,98775.91
2019-03-15T13:48:50.326Z,98772.32
2019-03-15T13:51:25.284Z,98794.41
2019-03-15T13:53:59.871Z,98791.22
2019-03-15T13:56:35.241Z,98789.50
2019-03-15T13:59:08.305Z,98780.83
2019-03-15T14:01:40.746Z,98809.94
2019-03-15T14:04:13.282Z,98785.48
2019-03-15T14:06:46.424Z,98781.70
2019-03-15T14:09:20.445Z,98795.98
2019-03-15T14:11:54.609Z,98801.91
2019-03-15T14:14:27.874Z,98771.46
2019-03-15T14:17:00.397Z,98775.92
2019-03-15T14:19:33.866Z,98773.83
2019-03-15T14:22:08.226Z,98779.59
2019-03-15T14:24:42.088Z,98800.94
2019-03-15T14:27:15.124Z,98794.27
2019-03-15T14:29:51.245Z,98783.23
2019-03-15T14:32:24.914Z,98784.52
2019-03-15T14:34:57.966Z,98776.63
2019-03-15T14:37:44.338Z,98780.86
2019-03-15T14:40:19.494Z,98779.08
2019-03-15T14:42:56.779Z,98774.55
2019-03-15T14:45:39.379Z,98773.17
2019-03-15T14:48:20.425Z,98763.39
2019-03-15T14:51:01.559Z,98771.93
2019-03-15T14:53:42.351Z,98779.05
2019-03-15T14:56:18.766Z,98783.59
2019-03-15T14:58:55.418Z,98777.66
2019-03-15T15:01:28.879Z,98771.48
2019-03-15T15:04:04.591Z,98781.53
2019-03-15T15:06:42.456Z,98777.19
2019-03-15T15:09:15.887Z,98785.53
2019-03-15T15:11:51.282Z,98784.80
2019-03-15T15:14:25.641Z,98777.15
2019-03-15T15:16:58.885Z,98764.66
2019-03-15T15:19:32.146Z,98751.52
2019-03-15T15:22:05.822Z,98769.64
2019-03-15T15:25:01.995Z,98763.05
2019-03-15T15:27:35.804Z,98784.84
2019-03-15T15:30:15.625Z,98759.19
2019-03-15T15:32:48.946Z,98779.41
2019-03-15T15:35:21.634Z,98761.96
2019-03-15T15:37:57.427Z,98755.25
2019-03-15T15:40:30.751Z,98766.03
2019-03-15T15:43:03.196Z,98768.32
2019-03-15T15:45:37.115Z,98762.66
2019-03-15T15:48:09.566Z,98760.14
2019-03-15T15:50:42.983Z,98745.02
2019-03-15T15:53:19.406Z,98765.45
2019-03-15T15:55:53.293Z,98764.26
2019-03-15T15:58:25.639Z,98756.22
2019-03-15T16:01:00.335Z,98770.44
2019-03-15T16:03:33.289Z,98765.70
2019-03-15T16:06:06.496Z,98756.73
2019-03-15T16:08:39.581Z,98764.56
2019-03-15T16:11:14.543Z,98777.21
2019-03-15T16:13:47.822Z,98767.13
2019-03-15T16:16:23.960Z,98760.39
2019-03-15T16:18:57.427Z,98750.31
2019-03-15T16:21:29.937Z,98771.80
2019-03-15T16:24:04.135Z,98763.49
2019-03-15T16:26:36.979Z,98772.94
2019-03-15T16:29:11.483Z,98768.52
2019-03-15T16:31:45.958Z,98753.56
2019-03-15T16:34:18.420Z,98757.55
2019-03-15T16:36:52.441Z,98764.20
2019-03-15T16:39:26.283Z,98757.91
2019-03-15T16:42:00.197Z,98769.75
2019-03-15T16:44:33.709Z,98745.11
2019-03-15T16:47:08.577Z,98738.23
2019-03-15T16:49:44.174Z,98750.95
2019-03-15T16:52:17.782Z,98752.69
2019-03-15T16:54:58.249Z,98754.52
2019-03-15T16:57:30.808Z,98750.64
2019-03-15T17:00:10.027Z,98749.08
2019-03-15T17:02:46.487Z,98749.77
2019-03-15T17:05:20.688Z,98761.38
2019-03-15T17:07:56.388Z,98752.66
2019-03-15T17:10:33.554Z,98775.01
2019-03-15T17:13:08.924Z,98784.72
2019-03-15T17:15:41.344Z,98786.31
2019-03-15T17:18:15.881Z,98786.45
2019-03-15T17:20:48.371Z,98788.20
2019-03-15T17:23:20.827Z,98787.48
2019-03-15T17:25:58.836Z,98810.16
2019-03-15T17:28:32.615Z,98818.58
2019-03-15T17:31:10.318Z,98822.73
2019-03-15T17:33:45.835Z,98819.41
2019-03-15T17:36:18.301Z,98821.91
2019-03-15T17:38:54.159Z,98832.48
2019-03-15T17:41:26.528Z,98808.88
2019-03-15T17:44:00.634Z,98828.39
2019-03-15T17:46:33.530Z,98826.30
2019-03-15T17:49:09.378Z,98842.36
2019-03-15T17:51:42.399Z,98850.70
2019-03-15T17:54:15.143Z,98866.37
2019-03-15T17:56:53.691Z,98865.84
2019-03-15T17:59:28.589Z,98875.91
2019-03-15T18:02:03.896Z,98859.52
2019-03-15T18:04:38.091Z,98869.27
2019-03-15T18:07:13.725Z,98886.98
2019-03-15T18:09:48.508Z,98895.50
2019-03-15T18:12:21.632Z,98899.12
2019-03-15T18:14:55.395Z,98906.84
2019-03-15T18:17:29.395Z,98894.33
2019-03-15T18:20:05.156Z,98910.96
2019-03-15T18:22:38.408Z,98915.15
2019-03-15T18:25:12.535Z,98914.05
2019-03-15T18:27:46.959Z,98921.96
2019-03-15T18:30:19.584Z,98935.56
2019-03-15T18:32:53.055Z,98926.72
2019-03-15T18:35:33.461Z,98937.33
2019-03-15T18:38:10.037Z,98955.95
2019-03-15T18:40:44.731Z,98980.92
2019-03-15T18:43:18.445Z,98959.70
2019-03-15T18:45:51.226Z,98975.25
2019-03-15T18:48:26.492Z,98994.14
2019-03-15T18:50:58.954Z,98981.96
2019-03-15T18:53:33.224Z,99003.59
2019-03-15T18:56:06.263Z,99005.14
2019-03-15T18:58:38.605Z,99028.35
2019-03-15T19:01:12.680Z,99036.62
2019-03-15T19:03:46.795Z,99041.23
2019-03-15T19:06:19.348Z,99042.47
2019-03-15T19:08:53.074Z,99032.96
2019-03-15T19:11:28.478Z,99049.48
2019-03-15T19:14:02.399Z,99044.27
2019-03-15T19:16:35.927Z,99058.61
2019-03-15T19:19:09.356Z,99053.27
2019-03-15T19:21:46.778Z,99062.81
2019-03-15T19:24:19.424Z,99062.77
2019-03-15T19:26:53.682Z,99064.83
2019-03-15T19:29:29.704Z,99067.32
2019-03-15T19:32:07.750Z,99070.58
2019-03-15T19:34:40.368Z,99077.30
2019-03-15T19:37:13.860Z,99093.22
2019-03-15T19:39:46.747Z,99089.79
2019-03-15T19:42:21.685Z,99078.06
2019-03-15T19:44:57.146Z,99083.95
2019-03-15T19:47:32.552Z,99092.61
2019-03-15T19:50:11.056Z,99105.18
2019-03-15T19:52:46.274Z,99101.41
2019-03-15T19:55:23.254Z,99106.77
2019-03-15T19:57:59.644Z,99108.79
2019-03-15T20:00:33.760Z,99118.02
2019-03-15T20:03:10.094Z,99122.41
2019-03-15T20:05:47.360Z,99134.02
2019-03-15T20:08:21.709Z,99138.15
2019-03-15T20:10:55.596Z,99141.08
2019-03-15T20:13:28.648Z,99148.05
2019-03-15T20:16:01.705Z,99157.91
2019-03-15T20:18:35.135Z,99160.69
2019-03-15T20:21:07.781Z,99163.99
2019-03-15T20:23:43.198Z,99173.45
2019-03-15T20:26:22.649Z,99171.56
2019-03-15T20:28:59.673Z,99171.44
2019-03-15T20:31:34.043Z,99167.27
2019-03-15T20:34:08.015Z,99172.33
2019-03-15T20:36:41.448Z,99171.89
2019-03-15T20:39:14.255Z,99168.16
2019-03-15T20:41:46.637Z,99177.09
2019-03-15T20:44:28.554Z,99181.88
2019-03-15T20:47:02.015Z,99187.17
2019-03-15T20:49:36.596Z,99175.73
2019-03-15T20:52:11.964Z,99175.47
2019-03-15T20:54:45.029Z,99174.30
2019-03-15T20:57:20.187Z,99176.33
2019-03-15T20:59:54.364Z,99187.91
2019-03-15T21:02:28.389Z,99180.59
2019-03-15T21:05:02.774Z,99183.16
2019-03-15T21:07:37.348Z,99186.38
2019-03-15T21:10:10.975Z,99189.42
2019-03-15T21:12:47.080Z,99181.83
2019-03-15T21:15:21.136Z,99180.39
2019-03-15T21:17:54.987Z,99179.41
2019-03-15T21:20:30.642Z,99177.17
2019-03-15T21:23:04.811Z,99186.83
2019-03-15T21:25:37.220Z,99185.18
2019-03-15T21:28:10.201Z,99196.81
2019-03-15T21:30:48.364Z,99190.80
2019-03-15T21:33:21.463Z,99175.23
2019-03-15T21:35:56.620Z,99179.14
2019-03-15T21:38:29.001Z,99185.34
2019-03-15T21:41:03.042Z,99188.17
2019-03-15T21:43:39.957Z,99193.45
2019-03-15T21:46:12.359Z,99199.88
2019-03-15T21:48:46.304Z,99204.48
2019-03-15T21:51:19.712Z,99210.78
2019-03-15T21:53:53.914Z,99210.23
2019-03-15T21:56:29.926Z,99228.76
2019-03-15T21:59:04.980Z,99231.91
2019-03-15T22:01:38.067Z,99233.95
2019-03-15T22:04:11.139Z,99229.84
2019-03-15T22:06:44.459Z,99228.97
2019-03-15T22:09:16.839Z,99228.16
2019-03-15T22:11:49.344Z,99237.97
2019-03-15T22:14:22.598Z,99248.17
2019-03-15T22:16:55.968Z,99254.85
2019-03-15T22:19:29.250Z,99258.34
2019-03-15T22:22:03.907Z,99255.78
2019-03-15T22:24:38.694Z,99258.16
2019-03-15T22:27:12.827Z,99259.51
2019-03-15T22:29:53.403Z,99262.85
2019-03-15T22:32:26.466Z,99260.06
2019-03-15T22:34:59.807Z,99264.91
2019-03-15T22:37:37.235Z,99258.12
2019-03-15T22:40:11.499Z,99261.71
2019-03-15T22:42:43.958Z,99263.44
2019-03-15T22:45:16.639Z,99260.89
2019-03-15T22:47:51.681Z,99267.47
2019-03-15T22:50:24.116Z,99278.84
2019-03-15T22:52:56.947Z,99273.73
2019-03-15T22:55:29.339Z,99266.79
2019-03-15T22:58:01.746Z,99267.58
2019-03-15T23:00:38.989Z,99261.10
2019-03-15T23:03:12.325Z,99259.49
2019-03-15T23:05:44.742Z,99259.98
2019-03-15T23:08:18.555Z,99275.95
2019-03-15T23:10:51.601Z,99286.90
2019-03-15T23:13:25.858Z,99291.74
2019-03-15T23:15:58.511Z,99299.31
2019-03-15T23:18:31.757Z,99305.02
2019-03-15T23:21:06.808Z,99314.86
2019-03-15T23:23:39.772Z,99316.46
2019-03-15T23:26:14.111Z,99317.13
2019-03-15T23:28:47.367Z,99318.92
2019-03-15T23:31:21.382Z,99325.06
2019-03-15T23:33:53.770Z,99326.55
2019-03-15T23:36:26.173Z,99315.41
2019-03-15T23:38:59.800Z,99301.58
2019-03-15T23:41:37.393Z,99304.31
2019-03-15T23:44:10.815Z,99312.43
2019-03-15T23:46:44.888Z,99306.25
2019-03-15T23:49:17.272Z,99310.20
2019-03-15T23:51:49.665Z,99312.41
2019-03-15T23:54:22.031Z,99305.18
2019-03-15T23:56:54.743Z,99305.80
2019-03-15T23:59:27.136Z,99298.75
